sensor_id;sensor_type;location;lat;lon;timestamp;temperature;humidity
74822;DHT22;63353;48.702;8.884;2023-11-22T00:00:40;5.90;99.90
74822;DHT22;63353;48.702;8.884;2023-11-22T00:03:06;5.80;99.90
74822;DHT22;63353;48.702;8.884;2023-11-22T00:05:32;5.90;99.90
74822;DHT22;63353;48.702;8.884;2023-11-22T00:07:57;5.80;99.90
74822;DHT22;63353;48.702;8.884;2023-11-22T00:10:23;5.80;99.90
74822;DHT22;63353;48.702;8.884;2023-11-22T00:12:49;5.80;99.90
74822;DHT22;63353;48.702;8.884;2023-11-22T00:15:14;5.80;99.90
74822;DHT22;63353;48.702;8.884;2023-11-22T00:17:44;5.90;99.90
74822;DHT22;63353;48.702;8.884;2023-11-22T00:20:10;5.90;99.90
74822;DHT22;63353;48.702;8.884;2023-11-22T00:22:35;5.90;99.90
74822;DHT22;63353;48.702;8.884;2023-11-22T00:25:01;5.90;99.90
74822;DHT22;63353;48.702;8.884;2023-11-22T00:27:28;5.80;99.90
74822;DHT22;63353;48.702;8.884;2023-11-22T00:29:55;5.80;99.90
74822;DHT22;63353;48.702;8.884;2023-11-22T00:32:21;5.60;99.90
74822;DHT22;63353;48.702;8.884;2023-11-22T00:34:46;5.40;99.90
74822;DHT22;63353;48.702;8.884;2023-11-22T00:37:13;5.30;99.90
74822;DHT22;63353;48.702;8.884;2023-11-22T00:39:39;5.20;99.90
74822;DHT22;63353;48.702;8.884;2023-11-22T00:42:04;5.10;99.90
74822;DHT22;63353;48.702;8.884;2023-11-22T00:44:30;4.90;99.90
74822;DHT22;63353;48.702;8.884;2023-11-22T00:46:56;4.90;99.90
74822;DHT22;63353;48.702;8.884;2023-11-22T00:49:23;4.80;99.90
74822;DHT22;63353;48.702;8.884;2023-11-22T00:51:49;4.80;99.90
74822;DHT22;63353;48.702;8.884;2023-11-22T00:54:16;4.60;99.90
74822;DHT22;63353;48.702;8.884;2023-11-22T00:56:41;4.60;99.90
74822;DHT22;63353;48.702;8.884;2023-11-22T00:59:07;4.50;99.90
74822;DHT22;63353;48.702;8.884;2023-11-22T01:01:34;4.40;99.90
74822;DHT22;63353;48.702;8.884;2023-11-22T01:03:59;4.30;99.90
74822;DHT22;63353;48.702;8.884;2023-11-22T01:06:25;4.30;99.90
74822;DHT22;63353;48.702;8.884;2023-11-22T01:08:51;4.20;99.90
74822;DHT22;63353;48.702;8.884;2023-11-22T01:11:16;4.20;99.90
74822;DHT22;63353;48.702;8.884;2023-11-22T01:13:42;4.10;99.90
74822;DHT22;63353;48.702;8.884;2023-11-22T01:16:11;4.10;99.90
74822;DHT22;63353;48.702;8.884;2023-11-22T01:18:38;4.10;99.90
74822;DHT22;63353;48.702;8.884;2023-11-22T01:21:04;4.10;99.90
74822;DHT22;63353;48.702;8.884;2023-11-22T01:23:30;4.00;99.90
74822;DHT22;63353;48.702;8.884;2023-11-22T01:26:00;3.90;99.90
74822;DHT22;63353;48.702;8.884;2023-11-22T01:28:28;3.90;99.90
74822;DHT22;63353;48.702;8.884;2023-11-22T01:30:55;3.70;99.90
74822;DHT22;63353;48.702;8.884;2023-11-22T01:33:23;3.80;99.90
74822;DHT22;63353;48.702;8.884;2023-11-22T01:35:49;3.70;99.90
74822;DHT22;63353;48.702;8.884;2023-11-22T01:38:15;3.60;99.90
74822;DHT22;63353;48.702;8.884;2023-11-22T01:40:47;3.60;99.90
74822;DHT22;63353;48.702;8.884;2023-11-22T01:43:14;3.50;99.90
74822;DHT22;63353;48.702;8.884;2023-11-22T01:45:40;3.50;99.90
74822;DHT22;63353;48.702;8.884;2023-11-22T01:48:06;3.50;99.90
74822;DHT22;63353;48.702;8.884;2023-11-22T01:50:32;3.50;99.90
74822;DHT22;63353;48.702;8.884;2023-11-22T01:52:59;3.50;99.90
74822;DHT22;63353;48.702;8.884;2023-11-22T01:55:25;3.50;99.90
74822;DHT22;63353;48.702;8.884;2023-11-22T01:57:51;3.50;99.90
74822;DHT22;63353;48.702;8.884;2023-11-22T02:00:18;3.40;99.90
74822;DHT22;63353;48.702;8.884;2023-11-22T02:02:45;3.40;99.90
74822;DHT22;63353;48.702;8.884;2023-11-22T02:05:10;3.30;99.90
74822;DHT22;63353;48.702;8.884;2023-11-22T02:07:37;3.30;99.90
74822;DHT22;63353;48.702;8.884;2023-11-22T02:10:06;3.30;99.90
74822;DHT22;63353;48.702;8.884;2023-11-22T02:12:32;3.30;99.90
74822;DHT22;63353;48.702;8.884;2023-11-22T02:14:59;3.20;99.90
74822;DHT22;63353;48.702;8.884;2023-11-22T02:17:24;3.20;99.90
74822;DHT22;63353;48.702;8.884;2023-11-22T02:19:50;3.20;99.90
74822;DHT22;63353;48.702;8.884;2023-11-22T02:22:16;3.20;99.90
74822;DHT22;63353;48.702;8.884;2023-11-22T02:24:41;3.20;99.90
74822;DHT22;63353;48.702;8.884;2023-11-22T02:27:07;3.20;99.90
74822;DHT22;63353;48.702;8.884;2023-11-22T02:29:33;3.20;99.90
74822;DHT22;63353;48.702;8.884;2023-11-22T02:31:58;3.20;99.90
74822;DHT22;63353;48.702;8.884;2023-11-22T02:34:24;3.20;99.90
74822;DHT22;63353;48.702;8.884;2023-11-22T02:36:50;3.10;99.90
74822;DHT22;63353;48.702;8.884;2023-11-22T02:39:16;3.10;99.90
74822;DHT22;63353;48.702;8.884;2023-11-22T02:41:42;3.00;99.90
74822;DHT22;63353;48.702;8.884;2023-11-22T02:44:08;3.00;99.90
74822;DHT22;63353;48.702;8.884;2023-11-22T02:46:33;2.90;99.90
74822;DHT22;63353;48.702;8.884;2023-11-22T02:48:59;2.80;99.90
74822;DHT22;63353;48.702;8.884;2023-11-22T02:51:25;2.80;99.90
74822;DHT22;63353;48.702;8.884;2023-11-22T02:53:51;2.50;99.90
74822;DHT22;63353;48.702;8.884;2023-11-22T02:56:17;2.50;99.90
74822;DHT22;63353;48.702;8.884;2023-11-22T02:58:43;2.40;99.90
74822;DHT22;63353;48.702;8.884;2023-11-22T03:01:08;2.30;99.90
74822;DHT22;63353;48.702;8.884;2023-11-22T03:03:34;2.20;99.90
74822;DHT22;63353;48.702;8.884;2023-11-22T03:06:00;2.10;99.90
74822;DHT22;63353;48.702;8.884;2023-11-22T03:08:26;2.10;99.90
74822;DHT22;63353;48.702;8.884;2023-11-22T03:10:52;2.00;99.90
74822;DHT22;63353;48.702;8.884;2023-11-22T03:13:18;2.00;99.90
74822;DHT22;63353;48.702;8.884;2023-11-22T03:15:44;2.00;99.90
74822;DHT22;63353;48.702;8.884;2023-11-22T03:18:10;1.90;99.90
74822;DHT22;63353;48.702;8.884;2023-11-22T03:20:37;1.90;99.90
74822;DHT22;63353;48.702;8.884;2023-11-22T03:23:04;1.90;99.90
74822;DHT22;63353;48.702;8.884;2023-11-22T03:25:30;1.80;99.90
74822;DHT22;63353;48.702;8.884;2023-11-22T03:27:56;1.80;99.90
74822;DHT22;63353;48.702;8.884;2023-11-22T03:30:22;1.80;99.90
74822;DHT22;63353;48.702;8.884;2023-11-22T03:32:47;1.80;99.90
74822;DHT22;63353;48.702;8.884;2023-11-22T03:35:15;1.70;99.90
74822;DHT22;63353;48.702;8.884;2023-11-22T03:37:42;1.70;99.90
74822;DHT22;63353;48.702;8.884;2023-11-22T03:40:08;1.80;99.90
74822;DHT22;63353;48.702;8.884;2023-11-22T03:42:36;1.70;99.90
74822;DHT22;63353;48.702;8.884;2023-11-22T03:45:03;1.70;99.90
74822;DHT22;63353;48.702;8.884;2023-11-22T03:47:29;1.70;99.90
74822;DHT22;63353;48.702;8.884;2023-11-22T03:49:54;1.70;99.90
74822;DHT22;63353;48.702;8.884;2023-11-22T03:52:20;1.70;99.90
74822;DHT22;63353;48.702;8.884;2023-11-22T03:54:46;1.70;99.90
74822;DHT22;63353;48.702;8.884;2023-11-22T03:57:11;1.60;99.90
74822;DHT22;63353;48.702;8.884;2023-11-22T03:59:37;1.60;99.90
74822;DHT22;63353;48.702;8.884;2023-11-22T04:02:02;1.70;99.90
74822;DHT22;63353;48.702;8.884;2023-11-22T04:04:29;1.70;99.90
74822;DHT22;63353;48.702;8.884;2023-11-22T04:06:55;1.60;99.90
74822;DHT22;63353;48.702;8.884;2023-11-22T04:09:22;1.60;99.90
74822;DHT22;63353;48.702;8.884;2023-11-22T04:11:47;1.70;99.90
74822;DHT22;63353;48.702;8.884;2023-11-22T04:14:13;1.70;99.90
74822;DHT22;63353;48.702;8.884;2023-11-22T04:16:39;1.70;99.90
74822;DHT22;63353;48.702;8.884;2023-11-22T04:19:04;1.60;99.90
74822;DHT22;63353;48.702;8.884;2023-11-22T04:21:30;1.60;99.90
74822;DHT22;63353;48.702;8.884;2023-11-22T04:23:56;1.60;99.90
74822;DHT22;63353;48.702;8.884;2023-11-22T04:26:21;1.70;99.90
74822;DHT22;63353;48.702;8.884;2023-11-22T04:28:47;1.60;99.90
74822;DHT22;63353;48.702;8.884;2023-11-22T04:31:12;1.60;99.90
74822;DHT22;63353;48.702;8.884;2023-11-22T04:33:38;1.60;99.90
74822;DHT22;63353;48.702;8.884;2023-11-22T04:36:04;1.60;99.90
74822;DHT22;63353;48.702;8.884;2023-11-22T04:38:30;1.60;99.90
74822;DHT22;63353;48.702;8.884;2023-11-22T04:40:56;1.60;99.90
74822;DHT22;63353;48.702;8.884;2023-11-22T04:43:21;1.60;99.90
74822;DHT22;63353;48.702;8.884;2023-11-22T04:45:48;1.60;99.90
74822;DHT22;63353;48.702;8.884;2023-11-22T04:48:15;1.60;99.90
74822;DHT22;63353;48.702;8.884;2023-11-22T04:50:41;1.60;99.90
74822;DHT22;63353;48.702;8.884;2023-11-22T04:53:08;1.70;99.90
74822;DHT22;63353;48.702;8.884;2023-11-22T04:55:34;1.60;99.90
74822;DHT22;63353;48.702;8.884;2023-11-22T04:58:00;1.60;99.90
74822;DHT22;63353;48.702;8.884;2023-11-22T05:00:26;1.60;99.90
74822;DHT22;63353;48.702;8.884;2023-11-22T05:02:52;1.60;99.90
74822;DHT22;63353;48.702;8.884;2023-11-22T05:05:20;1.60;99.90
74822;DHT22;63353;48.702;8.884;2023-11-22T05:07:46;1.60;99.90
74822;DHT22;63353;48.702;8.884;2023-11-22T05:10:13;1.60;99.90
74822;DHT22;63353;48.702;8.884;2023-11-22T05:12:39;1.60;99.90
74822;DHT22;63353;48.702;8.884;2023-11-22T05:15:07;1.50;99.90
74822;DHT22;63353;48.702;8.884;2023-11-22T05:17:33;1.50;99.90
74822;DHT22;63353;48.702;8.884;2023-11-22T05:20:01;1.40;99.90
74822;DHT22;63353;48.702;8.884;2023-11-22T05:22:27;1.40;99.90
74822;DHT22;63353;48.702;8.884;2023-11-22T05:24:52;1.40;99.90
74822;DHT22;63353;48.702;8.884;2023-11-22T05:27:18;1.40;99.90
74822;DHT22;63353;48.702;8.884;2023-11-22T05:29:43;1.40;99.90
74822;DHT22;63353;48.702;8.884;2023-11-22T05:32:09;1.40;99.90
74822;DHT22;63353;48.702;8.884;2023-11-22T05:34:35;1.30;99.90
74822;DHT22;63353;48.702;8.884;2023-11-22T05:37:01;1.30;99.90
74822;DHT22;63353;48.702;8.884;2023-11-22T05:39:26;1.30;99.90
74822;DHT22;63353;48.702;8.884;2023-11-22T05:41:52;1.30;99.90
74822;DHT22;63353;48.702;8.884;2023-11-22T05:44:18;1.30;99.90
74822;DHT22;63353;48.702;8.884;2023-11-22T05:46:44;1.30;99.90
74822;DHT22;63353;48.702;8.884;2023-11-22T05:49:10;1.20;99.90
74822;DHT22;63353;48.702;8.884;2023-11-22T05:51:36;1.20;99.90
74822;DHT22;63353;48.702;8.884;2023-11-22T05:54:06;1.20;99.90
74822;DHT22;63353;48.702;8.884;2023-11-22T05:56:32;1.20;99.90
74822;DHT22;63353;48.702;8.884;2023-11-22T05:58:59;1.10;99.90
74822;DHT22;63353;48.702;8.884;2023-11-22T06:01:25;1.20;99.90
74822;DHT22;63353;48.702;8.884;2023-11-22T06:03:52;1.20;99.90
74822;DHT22;63353;48.702;8.884;2023-11-22T06:06:18;1.20;99.90
74822;DHT22;63353;48.702;8.884;2023-11-22T06:08:47;1.20;99.90
74822;DHT22;63353;48.702;8.884;2023-11-22T06:11:12;1.20;99.90
74822;DHT22;63353;48.702;8.884;2023-11-22T06:13:40;1.20;99.90
74822;DHT22;63353;48.702;8.884;2023-11-22T06:16:06;1.10;99.90
74822;DHT22;63353;48.702;8.884;2023-11-22T06:18:32;1.20;99.90
74822;DHT22;63353;48.702;8.884;2023-11-22T06:20:59;1.20;99.90
74822;DHT22;63353;48.702;8.884;2023-11-22T06:23:25;1.20;99.90
74822;DHT22;63353;48.702;8.884;2023-11-22T06:25:50;1.20;99.90
74822;DHT22;63353;48.702;8.884;2023-11-22T06:28:17;1.20;99.90
74822;DHT22;63353;48.702;8.884;2023-11-22T06:30:43;1.10;99.90
74822;DHT22;63353;48.702;8.884;2023-11-22T06:33:09;1.10;99.90
74822;DHT22;63353;48.702;8.884;2023-11-22T06:35:35;1.10;99.90
74822;DHT22;63353;48.702;8.884;2023-11-22T06:38:02;1.10;99.90
74822;DHT22;63353;48.702;8.884;2023-11-22T06:40:28;1.10;99.90
74822;DHT22;63353;48.702;8.884;2023-11-22T06:42:55;1.00;99.90
74822;DHT22;63353;48.702;8.884;2023-11-22T06:45:21;1.00;99.90
74822;DHT22;63353;48.702;8.884;2023-11-22T06:47:47;1.00;99.90
74822;DHT22;63353;48.702;8.884;2023-11-22T06:50:16;1.00;99.90
74822;DHT22;63353;48.702;8.884;2023-11-22T06:52:42;1.00;99.90
74822;DHT22;63353;48.702;8.884;2023-11-22T06:55:09;1.00;99.90
74822;DHT22;63353;48.702;8.884;2023-11-22T06:57:35;1.10;99.90
74822;DHT22;63353;48.702;8.884;2023-11-22T07:00:02;1.10;99.90
74822;DHT22;63353;48.702;8.884;2023-11-22T07:02:33;1.10;99.90
74822;DHT22;63353;48.702;8.884;2023-11-22T07:05:03;1.10;99.90
74822;DHT22;63353;48.702;8.884;2023-11-22T07:07:33;1.20;99.90
74822;DHT22;63353;48.702;8.884;2023-11-22T07:09:59;1.20;99.90
74822;DHT22;63353;48.702;8.884;2023-11-22T07:12:25;1.10;99.90
74822;DHT22;63353;48.702;8.884;2023-11-22T07:14:52;1.10;99.90
74822;DHT22;63353;48.702;8.884;2023-11-22T07:17:18;1.20;99.90
74822;DHT22;63353;48.702;8.884;2023-11-22T07:19:44;1.20;99.90
74822;DHT22;63353;48.702;8.884;2023-11-22T07:22:15;1.20;99.90
74822;DHT22;63353;48.702;8.884;2023-11-22T07:24:48;1.20;99.90
74822;DHT22;63353;48.702;8.884;2023-11-22T07:27:16;1.10;99.90
74822;DHT22;63353;48.702;8.884;2023-11-22T07:29:43;1.20;99.90
74822;DHT22;63353;48.702;8.884;2023-11-22T07:32:10;1.20;99.90
74822;DHT22;63353;48.702;8.884;2023-11-22T07:34:37;1.20;99.90
74822;DHT22;63353;48.702;8.884;2023-11-22T07:37:04;1.20;99.90
74822;DHT22;63353;48.702;8.884;2023-11-22T07:39:32;1.20;99.90
74822;DHT22;63353;48.702;8.884;2023-11-22T07:41:58;1.20;99.90
74822;DHT22;63353;48.702;8.884;2023-11-22T07:44:24;1.20;99.90
74822;DHT22;63353;48.702;8.884;2023-11-22T07:46:50;1.20;99.90
74822;DHT22;63353;48.702;8.884;2023-11-22T07:49:18;1.20;99.90
74822;DHT22;63353;48.702;8.884;2023-11-22T07:51:44;1.20;99.90
74822;DHT22;63353;48.702;8.884;2023-11-22T07:54:13;1.20;99.90
74822;DHT22;63353;48.702;8.884;2023-11-22T07:56:41;1.20;99.90
74822;DHT22;63353;48.702;8.884;2023-11-22T07:59:09;1.20;99.90
74822;DHT22;63353;48.702;8.884;2023-11-22T08:01:37;1.20;99.90
74822;DHT22;63353;48.702;8.884;2023-11-22T08:04:03;1.20;99.90
74822;DHT22;63353;48.702;8.884;2023-11-22T08:06:33;1.10;99.90
74822;DHT22;63353;48.702;8.884;2023-11-22T08:09:00;1.10;99.90
74822;DHT22;63353;48.702;8.884;2023-11-22T08:11:27;1.20;99.90
74822;DHT22;63353;48.702;8.884;2023-11-22T08:13:53;1.10;99.90
74822;DHT22;63353;48.702;8.884;2023-11-22T08:16:23;1.10;99.90
74822;DHT22;63353;48.702;8.884;2023-11-22T08:18:49;1.10;99.90
74822;DHT22;63353;48.702;8.884;2023-11-22T08:21:14;0.90;99.90
74822;DHT22;63353;48.702;8.884;2023-11-22T08:23:41;0.70;99.90
74822;DHT22;63353;48.702;8.884;2023-11-22T08:26:06;0.70;99.90
74822;DHT22;63353;48.702;8.884;2023-11-22T08:28:34;0.70;99.90
74822;DHT22;63353;48.702;8.884;2023-11-22T08:31:00;0.80;99.90
74822;DHT22;63353;48.702;8.884;2023-11-22T08:33:29;0.60;99.90
74822;DHT22;63353;48.702;8.884;2023-11-22T08:35:55;0.70;99.90
74822;DHT22;63353;48.702;8.884;2023-11-22T08:38:25;0.60;99.90
74822;DHT22;63353;48.702;8.884;2023-11-22T08:40:53;0.80;99.90
74822;DHT22;63353;48.702;8.884;2023-11-22T08:43:20;0.70;99.90
74822;DHT22;63353;48.702;8.884;2023-11-22T08:45:51;0.80;99.90
74822;DHT22;63353;48.702;8.884;2023-11-22T08:48:16;0.80;99.90
74822;DHT22;63353;48.702;8.884;2023-11-22T08:50:42;1.10;99.90
74822;DHT22;63353;48.702;8.884;2023-11-22T08:53:10;1.20;99.90
74822;DHT22;63353;48.702;8.884;2023-11-22T08:55:35;1.20;99.90
74822;DHT22;63353;48.702;8.884;2023-11-22T08:58:01;1.10;99.90
74822;DHT22;63353;48.702;8.884;2023-11-22T09:00:27;0.90;99.90
74822;DHT22;63353;48.702;8.884;2023-11-22T09:02:54;1.00;99.90
74822;DHT22;63353;48.702;8.884;2023-11-22T09:05:23;1.20;99.90
74822;DHT22;63353;48.702;8.884;2023-11-22T09:07:48;1.10;99.90
74822;DHT22;63353;48.702;8.884;2023-11-22T09:10:14;1.00;99.90
74822;DHT22;63353;48.702;8.884;2023-11-22T09:12:42;1.10;99.90
74822;DHT22;63353;48.702;8.884;2023-11-22T09:15:10;1.30;99.90
74822;DHT22;63353;48.702;8.884;2023-11-22T09:17:40;1.40;99.90
74822;DHT22;63353;48.702;8.884;2023-11-22T09:20:17;1.50;99.90
74822;DHT22;63353;48.702;8.884;2023-11-22T09:22:44;1.60;99.90
74822;DHT22;63353;48.702;8.884;2023-11-22T09:25:17;1.70;99.90
74822;DHT22;63353;48.702;8.884;2023-11-22T09:27:44;1.70;99.90
74822;DHT22;63353;48.702;8.884;2023-11-22T09:30:15;1.80;99.90
74822;DHT22;63353;48.702;8.884;2023-11-22T09:33:05;1.90;99.90
74822;DHT22;63353;48.702;8.884;2023-11-22T09:35:31;1.90;99.90
74822;DHT22;63353;48.702;8.884;2023-11-22T09:38:05;2.10;99.90
74822;DHT22;63353;48.702;8.884;2023-11-22T09:40:48;2.10;99.90
74822;DHT22;63353;48.702;8.884;2023-11-22T09:43:15;2.20;99.90
74822;DHT22;63353;48.702;8.884;2023-11-22T09:45:44;2.20;99.90
74822;DHT22;63353;48.702;8.884;2023-11-22T09:56:08;2.30;99.90
74822;DHT22;63353;48.702;8.884;2023-11-22T09:58:37;2.30;99.90
74822;DHT22;63353;48.702;8.884;2023-11-22T10:01:05;2.40;99.90
74822;DHT22;63353;48.702;8.884;2023-11-22T10:03:31;2.40;99.90
74822;DHT22;63353;48.702;8.884;2023-11-22T10:05:57;2.50;99.90
74822;DHT22;63353;48.702;8.884;2023-11-22T10:08:27;2.50;99.90
74822;DHT22;63353;48.702;8.884;2023-11-22T10:10:55;2.50;99.90
74822;DHT22;63353;48.702;8.884;2023-11-22T10:13:21;2.50;99.90
74822;DHT22;63353;48.702;8.884;2023-11-22T10:15:48;2.60;99.90
74822;DHT22;63353;48.702;8.884;2023-11-22T10:18:14;2.60;99.90
74822;DHT22;63353;48.702;8.884;2023-11-22T10:20:41;2.60;99.90
74822;DHT22;63353;48.702;8.884;2023-11-22T10:23:14;2.60;99.90
74822;DHT22;63353;48.702;8.884;2023-11-22T10:25:48;2.60;99.90
74822;DHT22;63353;48.702;8.884;2023-11-22T10:28:15;2.60;99.90
74822;DHT22;63353;48.702;8.884;2023-11-22T10:30:45;2.70;99.90
74822;DHT22;63353;48.702;8.884;2023-11-22T10:33:11;2.60;99.90
74822;DHT22;63353;48.702;8.884;2023-11-22T10:35:42;2.50;99.90
74822;DHT22;63353;48.702;8.884;2023-11-22T10:38:08;2.50;99.90
74822;DHT22;63353;48.702;8.884;2023-11-22T10:40:36;2.40;99.90
74822;DHT22;63353;48.702;8.884;2023-11-22T10:43:03;2.40;99.90
74822;DHT22;63353;48.702;8.884;2023-11-22T10:45:30;2.40;99.90
74822;DHT22;63353;48.702;8.884;2023-11-22T10:48:00;2.50;99.90
74822;DHT22;63353;48.702;8.884;2023-11-22T10:50:26;2.50;99.90
74822;DHT22;63353;48.702;8.884;2023-11-22T10:52:57;2.70;99.90
74822;DHT22;63353;48.702;8.884;2023-11-22T10:55:27;2.60;99.90
74822;DHT22;63353;48.702;8.884;2023-11-22T10:57:55;2.50;99.90
74822;DHT22;63353;48.702;8.884;2023-11-22T11:00:23;2.60;99.90
74822;DHT22;63353;48.702;8.884;2023-11-22T11:02:59;2.60;99.90
74822;DHT22;63353;48.702;8.884;2023-11-22T11:05:31;2.60;99.90
74822;DHT22;63353;48.702;8.884;2023-11-22T11:08:13;2.60;99.90
74822;DHT22;63353;48.702;8.884;2023-11-22T11:10:42;2.50;99.90
74822;DHT22;63353;48.702;8.884;2023-11-22T11:13:09;2.50;99.90
74822;DHT22;63353;48.702;8.884;2023-11-22T11:15:35;2.50;99.90
74822;DHT22;63353;48.702;8.884;2023-11-22T11:18:02;2.40;99.90
74822;DHT22;63353;48.702;8.884;2023-11-22T11:20:32;2.30;99.90
74822;DHT22;63353;48.702;8.884;2023-11-22T11:23:02;2.20;99.90
74822;DHT22;63353;48.702;8.884;2023-11-22T11:25:32;2.10;99.90
74822;DHT22;63353;48.702;8.884;2023-11-22T11:27:59;2.20;99.90
74822;DHT22;63353;48.702;8.884;2023-11-22T11:30:49;2.20;99.90
74822;DHT22;63353;48.702;8.884;2023-11-22T11:33:19;2.10;99.90
74822;DHT22;63353;48.702;8.884;2023-11-22T11:35:51;2.20;99.90
74822;DHT22;63353;48.702;8.884;2023-11-22T11:38:21;2.20;99.90
74822;DHT22;63353;48.702;8.884;2023-11-22T11:40:51;2.10;99.90
74822;DHT22;63353;48.702;8.884;2023-11-22T11:46:09;2.00;99.90
74822;DHT22;63353;48.702;8.884;2023-11-22T11:48:35;2.00;99.90
74822;DHT22;63353;48.702;8.884;2023-11-22T11:51:01;1.90;99.90
74822;DHT22;63353;48.702;8.884;2023-11-22T11:53:27;2.00;99.90
74822;DHT22;63353;48.702;8.884;2023-11-22T11:55:54;2.00;99.90
74822;DHT22;63353;48.702;8.884;2023-11-22T11:58:20;2.00;99.90
74822;DHT22;63353;48.702;8.884;2023-11-22T12:00:50;2.00;99.90
74822;DHT22;63353;48.702;8.884;2023-11-22T12:03:18;2.00;99.90
74822;DHT22;63353;48.702;8.884;2023-11-22T12:05:47;2.00;99.90
74822;DHT22;63353;48.702;8.884;2023-11-22T12:08:14;2.00;99.90
74822;DHT22;63353;48.702;8.884;2023-11-22T12:10:41;1.90;99.90
74822;DHT22;63353;48.702;8.884;2023-11-22T12:13:07;1.80;99.90
74822;DHT22;63353;48.702;8.884;2023-11-22T12:15:34;1.90;99.90
74822;DHT22;63353;48.702;8.884;2023-11-22T12:18:03;1.60;99.90
74822;DHT22;63353;48.702;8.884;2023-11-22T12:20:29;1.40;99.90
74822;DHT22;63353;48.702;8.884;2023-11-22T12:22:59;1.30;99.90
74822;DHT22;63353;48.702;8.884;2023-11-22T12:25:30;1.50;99.90
74822;DHT22;63353;48.702;8.884;2023-11-22T12:27:56;1.50;99.90
74822;DHT22;63353;48.702;8.884;2023-11-22T12:30:31;1.70;99.90
74822;DHT22;63353;48.702;8.884;2023-11-22T12:33:02;1.80;99.90
74822;DHT22;63353;48.702;8.884;2023-11-22T12:35:29;1.70;99.90
74822;DHT22;63353;48.702;8.884;2023-11-22T12:37:54;1.90;99.90
74822;DHT22;63353;48.702;8.884;2023-11-22T12:40:21;1.90;99.90
74822;DHT22;63353;48.702;8.884;2023-11-22T12:42:48;1.70;99.90
74822;DHT22;63353;48.702;8.884;2023-11-22T12:45:21;1.70;99.90
74822;DHT22;63353;48.702;8.884;2023-11-22T12:47:52;1.60;99.90
74822;DHT22;63353;48.702;8.884;2023-11-22T12:50:37;1.60;99.90
74822;DHT22;63353;48.702;8.884;2023-11-22T12:53:11;1.60;99.90
74822;DHT22;63353;48.702;8.884;2023-11-22T12:55:38;1.70;99.90
74822;DHT22;63353;48.702;8.884;2023-11-22T12:58:04;1.80;99.90
74822;DHT22;63353;48.702;8.884;2023-11-22T13:00:30;1.70;99.90
74822;DHT22;63353;48.702;8.884;2023-11-22T13:02:56;1.50;99.90
74822;DHT22;63353;48.702;8.884;2023-11-22T13:05:24;1.50;99.90
74822;DHT22;63353;48.702;8.884;2023-11-22T13:07:50;1.60;99.90
74822;DHT22;63353;48.702;8.884;2023-11-22T13:10:17;1.60;99.90
74822;DHT22;63353;48.702;8.884;2023-11-22T13:12:43;1.70;99.90
74822;DHT22;63353;48.702;8.884;2023-11-22T13:15:12;1.70;99.90
74822;DHT22;63353;48.702;8.884;2023-11-22T13:17:41;1.70;99.90
74822;DHT22;63353;48.702;8.884;2023-11-22T13:20:07;1.70;99.90
74822;DHT22;63353;48.702;8.884;2023-11-22T13:22:41;1.70;99.90
74822;DHT22;63353;48.702;8.884;2023-11-22T13:25:10;1.60;99.90
74822;DHT22;63353;48.702;8.884;2023-11-22T13:27:39;1.50;99.90
74822;DHT22;63353;48.702;8.884;2023-11-22T13:30:07;1.60;99.90
74822;DHT22;63353;48.702;8.884;2023-11-22T13:32:32;1.60;99.90
74822;DHT22;63353;48.702;8.884;2023-11-22T13:34:58;1.60;99.90
74822;DHT22;63353;48.702;8.884;2023-11-22T13:37:25;1.60;99.90
74822;DHT22;63353;48.702;8.884;2023-11-22T13:39:50;1.70;99.90
74822;DHT22;63353;48.702;8.884;2023-11-22T13:42:16;1.60;99.90
74822;DHT22;63353;48.702;8.884;2023-11-22T13:44:42;1.70;99.90
74822;DHT22;63353;48.702;8.884;2023-11-22T13:47:10;1.70;99.90
74822;DHT22;63353;48.702;8.884;2023-11-22T13:49:36;1.60;99.90
74822;DHT22;63353;48.702;8.884;2023-11-22T13:52:02;1.60;99.90
74822;DHT22;63353;48.702;8.884;2023-11-22T13:54:28;1.70;99.90
74822;DHT22;63353;48.702;8.884;2023-11-22T13:56:54;1.80;99.90
74822;DHT22;63353;48.702;8.884;2023-11-22T13:59:19;1.80;99.90
74822;DHT22;63353;48.702;8.884;2023-11-22T14:01:45;1.80;99.90
74822;DHT22;63353;48.702;8.884;2023-11-22T14:04:12;1.80;99.90
74822;DHT22;63353;48.702;8.884;2023-11-22T14:06:38;1.80;99.90
74822;DHT22;63353;48.702;8.884;2023-11-22T14:09:04;1.80;99.90
74822;DHT22;63353;48.702;8.884;2023-11-22T14:11:30;1.90;99.90
74822;DHT22;63353;48.702;8.884;2023-11-22T14:13:56;1.90;99.90
74822;DHT22;63353;48.702;8.884;2023-11-22T14:16:25;1.80;99.90
74822;DHT22;63353;48.702;8.884;2023-11-22T14:18:51;1.80;99.90
74822;DHT22;63353;48.702;8.884;2023-11-22T14:21:17;1.80;99.90
74822;DHT22;63353;48.702;8.884;2023-11-22T14:23:43;1.80;99.90
74822;DHT22;63353;48.702;8.884;2023-11-22T14:26:09;1.80;99.90
74822;DHT22;63353;48.702;8.884;2023-11-22T14:28:35;1.80;99.90
74822;DHT22;63353;48.702;8.884;2023-11-22T14:31:00;1.70;99.90
74822;DHT22;63353;48.702;8.884;2023-11-22T14:33:27;1.80;99.90
74822;DHT22;63353;48.702;8.884;2023-11-22T14:35:57;1.70;99.90
74822;DHT22;63353;48.702;8.884;2023-11-22T14:38:23;1.60;99.90
74822;DHT22;63353;48.702;8.884;2023-11-22T14:40:50;1.60;99.90
74822;DHT22;63353;48.702;8.884;2023-11-22T14:43:15;1.50;99.90
74822;DHT22;63353;48.702;8.884;2023-11-22T14:45:41;1.50;99.90
74822;DHT22;63353;48.702;8.884;2023-11-22T14:48:07;1.50;99.90
74822;DHT22;63353;48.702;8.884;2023-11-22T14:50:34;1.50;99.90
74822;DHT22;63353;48.702;8.884;2023-11-22T14:52:59;1.50;99.90
74822;DHT22;63353;48.702;8.884;2023-11-22T14:55:25;1.50;99.90
74822;DHT22;63353;48.702;8.884;2023-11-22T14:57:51;1.50;99.90
74822;DHT22;63353;48.702;8.884;2023-11-22T15:00:19;1.50;99.90
74822;DHT22;63353;48.702;8.884;2023-11-22T15:02:45;1.50;99.90
74822;DHT22;63353;48.702;8.884;2023-11-22T15:05:18;1.50;99.90
74822;DHT22;63353;48.702;8.884;2023-11-22T15:07:43;1.50;99.90
74822;DHT22;63353;48.702;8.884;2023-11-22T15:10:12;1.50;99.90
74822;DHT22;63353;48.702;8.884;2023-11-22T15:12:40;1.40;99.90
74822;DHT22;63353;48.702;8.884;2023-11-22T15:15:08;1.40;99.90
74822;DHT22;63353;48.702;8.884;2023-11-22T15:17:34;1.50;99.90
74822;DHT22;63353;48.702;8.884;2023-11-22T15:20:00;1.40;99.90
74822;DHT22;63353;48.702;8.884;2023-11-22T15:22:25;1.40;99.90
74822;DHT22;63353;48.702;8.884;2023-11-22T15:24:52;1.40;99.90
74822;DHT22;63353;48.702;8.884;2023-11-22T15:27:18;1.40;99.90
74822;DHT22;63353;48.702;8.884;2023-11-22T15:29:43;1.30;99.90
74822;DHT22;63353;48.702;8.884;2023-11-22T15:32:09;1.30;99.90
74822;DHT22;63353;48.702;8.884;2023-11-22T15:34:34;1.20;99.90
74822;DHT22;63353;48.702;8.884;2023-11-22T15:37:03;1.30;99.90
74822;DHT22;63353;48.702;8.884;2023-11-22T15:39:30;1.30;99.90
74822;DHT22;63353;48.702;8.884;2023-11-22T15:42:00;1.30;99.90
74822;DHT22;63353;48.702;8.884;2023-11-22T15:44:25;1.20;99.90
74822;DHT22;63353;48.702;8.884;2023-11-22T15:46:52;1.20;99.90
74822;DHT22;63353;48.702;8.884;2023-11-22T15:49:18;1.20;99.90
74822;DHT22;63353;48.702;8.884;2023-11-22T15:51:45;1.10;99.90
74822;DHT22;63353;48.702;8.884;2023-11-22T15:54:11;1.10;99.90